Time;durP1;ratioP1;P1;durP2;ratioP2;P2;SDS_P1;SDS_P2;PMS_P1;PMS_P2;Temp;Humidity;BMP_temperature;BMP_pressure;BME280_temperature;BME280_humidity;BME280_pressure;Samples;Min_cycle;Max_cycle;Signal;HPM_P1;HPM_P2
2022/08/20 00:00:54;;;;;;;11.48;9.57;;;20.10;99.90;;;;;;5067101;28;20043;-73
2022/08/20 00:03:28;;;;;;;14.50;9.68;;;20.10;99.90;;;;;;5085274;28;20032;-73
2022/08/20 00:05:58;;;;;;;10.93;9.13;;;20.10;99.90;;;;;;5083008;28;20041;-74
2022/08/20 00:08:25;;;;;;;13.43;9.70;;;20.00;99.90;;;;;;5062261;28;20552;-74
2022/08/20 00:10:52;;;;;;;9.43;8.48;;;20.10;99.90;;;;;;5083649;28;20483;-73
2022/08/20 00:13:25;;;;;;;12.57;8.90;;;20.10;99.90;;;;;;5061338;28;20036;-73
2022/08/20 00:15:51;;;;;;;12.70;8.88;;;20.10;99.90;;;;;;5070590;28;20047;-73
2022/08/20 00:18:17;;;;;;;14.02;8.85;;;20.00;99.90;;;;;;5065979;28;20450;-73
2022/08/20 00:20:46;;;;;;;13.48;9.18;;;20.00;99.90;;;;;;5072795;28;20070;-73
2022/08/20 00:23:13;;;;;;;11.70;8.90;;;20.00;99.90;;;;;;5089116;28;20081;-72
2022/08/20 00:25:40;;;;;;;12.52;9.45;;;19.90;99.90;;;;;;5069500;28;20506;-73
2022/08/20 00:28:06;;;;;;;14.65;9.10;;;19.90;99.90;;;;;;5071817;28;20572;-73
2022/08/20 00:30:39;;;;;;;15.55;8.93;;;20.00;99.90;;;;;;5063344;28;20124;-73
2022/08/20 00:33:11;;;;;;;16.08;9.30;;;19.90;99.90;;;;;;5074931;28;20526;-73
2022/08/20 00:35:40;;;;;;;16.55;8.93;;;19.90;99.90;;;;;;5066708;28;20123;-73
2022/08/20 00:38:06;;;;;;;12.75;9.27;;;19.90;99.90;;;;;;5065503;28;20044;-73
2022/08/20 00:40:40;;;;;;;11.52;8.63;;;19.90;99.90;;;;;;5085025;28;20561;-73
2022/08/20 00:43:24;;;;;;;12.38;9.10;;;19.90;99.90;;;;;;5072203;28;20779;-73
2022/08/20 00:45:54;;;;;;;14.80;9.07;;;19.80;99.90;;;;;;5093838;28;20482;-73
2022/08/20 00:48:21;;;;;;;12.70;8.75;;;19.80;99.90;;;;;;5071950;28;20472;-73
2022/08/20 00:50:47;;;;;;;10.23;8.18;;;19.80;99.90;;;;;;5057130;28;20040;-73
2022/08/20 00:53:14;;;;;;;14.52;8.43;;;19.80;99.90;;;;;;5069818;28;20112;-73
2022/08/20 00:55:40;;;;;;;14.55;8.98;;;19.70;99.90;;;;;;5066738;28;20514;-73
2022/08/20 00:58:08;;;;;;;11.73;8.50;;;19.70;99.90;;;;;;5066560;28;20506;-73
2022/08/20 01:00:38;;;;;;;10.60;7.97;;;19.70;99.90;;;;;;5065925;28;20491;-73
2022/08/20 01:03:08;;;;;;;17.08;9.05;;;19.70;99.90;;;;;;5066231;28;20036;-73
2022/08/20 01:05:35;;;;;;;14.77;8.30;;;19.60;99.90;;;;;;5066223;28;20653;-74
2022/08/20 01:08:01;;;;;;;10.90;8.57;;;19.60;99.90;;;;;;5069206;28;20398;-74
2022/08/20 01:10:33;;;;;;;10.00;7.75;;;19.60;99.90;;;;;;5067066;28;20402;-74
2022/08/20 01:12:59;;;;;;;11.73;7.38;;;19.50;99.90;;;;;;5065810;28;20036;-73
2022/08/20 01:15:28;;;;;;;11.63;7.82;;;19.50;99.90;;;;;;5065680;28;20116;-73
2022/08/20 01:17:57;;;;;;;13.27;7.85;;;19.50;99.90;;;;;;5078069;28;20393;-74
2022/08/20 01:20:31;;;;;;;10.02;8.30;;;19.40;99.90;;;;;;5096706;28;20383;-73
2022/08/20 01:23:26;;;;;;;11.02;7.80;;;19.40;99.90;;;;;;5089233;28;20107;-74
2022/08/20 01:26:24;;;;;;;9.93;6.80;;;19.40;99.90;;;;;;5046770;28;20416;-74
2022/08/20 01:29:03;;;;;;;9.30;8.38;;;19.40;99.90;;;;;;5088854;28;20417;-74
2022/08/20 01:31:32;;;;;;;12.82;8.13;;;19.40;99.90;;;;;;5089014;28;20039;-74
2022/08/20 01:34:00;;;;;;;12.05;8.05;;;19.40;99.90;;;;;;5091997;28;20424;-73
2022/08/20 01:36:35;;;;;;;12.82;7.90;;;19.30;99.90;;;;;;5090703;28;20040;-74
2022/08/20 01:39:01;;;;;;;12.95;7.85;;;19.30;99.90;;;;;;5087897;28;20122;-74
2022/08/20 01:42:03;;;;;;;12.25;7.80;;;19.30;99.90;;;;;;5093571;28;20116;-74
2022/08/20 01:44:30;;;;;;;14.95;7.30;;;19.30;99.90;;;;;;5091027;28;20899;-74
2022/08/20 01:46:57;;;;;;;13.50;7.30;;;19.20;99.90;;;;;;5090722;28;20035;-74
2022/08/20 01:49:34;;;;;;;13.60;8.32;;;19.20;99.90;;;;;;5085030;28;20509;-74
2022/08/20 01:52:04;;;;;;;12.13;7.90;;;19.30;99.90;;;;;;5088998;28;20055;-74
2022/08/20 01:54:32;;;;;;;20.52;8.32;;;19.20;99.90;;;;;;5061381;28;20121;-74
2022/08/20 01:57:13;;;;;;;12.65;8.13;;;19.20;99.90;;;;;;5089933;28;20055;-74
2022/08/20 01:59:40;;;;;;;12.93;7.97;;;19.20;99.90;;;;;;5090814;28;20040;-74
2022/08/20 02:02:06;;;;;;;9.68;7.00;;;19.10;99.90;;;;;;5084699;28;20602;-74
2022/08/20 02:04:33;;;;;;;13.30;7.75;;;19.10;99.90;;;;;;5094143;28;20031;-74
2022/08/20 02:07:03;;;;;;;15.13;8.00;;;19.10;99.90;;;;;;5091965;28;20047;-74
2022/08/20 02:09:32;;;;;;;9.75;6.93;;;19.10;99.90;;;;;;5065988;28;20069;-74
2022/08/20 02:11:59;;;;;;;13.75;7.90;;;19.10;99.90;;;;;;5098198;28;20062;-74
2022/08/20 02:14:26;;;;;;;29.00;7.70;;;19.00;99.90;;;;;;5084418;28;20035;-74
2022/08/20 02:16:53;;;;;;;14.57;7.30;;;19.00;99.90;;;;;;5087327;28;20040;-74
2022/08/20 02:19:25;;;;;;;11.35;7.20;;;19.00;99.90;;;;;;5083545;28;20404;-74
2022/08/20 02:21:54;;;;;;;13.65;7.03;;;19.00;99.90;;;;;;5094076;28;20093;-74
2022/08/20 02:24:20;;;;;;;11.10;6.90;;;19.00;99.90;;;;;;5098095;28;20391;-74
2022/08/20 02:26:45;;;;;;;11.27;6.70;;;19.00;99.90;;;;;;5091897;28;20044;-74
2022/08/20 02:29:12;;;;;;;9.43;6.72;;;18.90;99.90;;;;;;5079229;28;20098;-74
2022/08/20 02:31:41;;;;;;;11.55;7.20;;;18.90;99.90;;;;;;5094565;28;20093;-74
2022/08/20 02:34:10;;;;;;;13.23;7.63;;;18.90;99.90;;;;;;5098149;28;20148;-74
2022/08/20 02:36:37;;;;;;;11.77;7.30;;;18.90;99.90;;;;;;5089642;28;20074;-74
2022/08/20 02:39:08;;;;;;;15.88;7.50;;;18.90;99.90;;;;;;5115807;28;20153;-74
2022/08/20 02:41:34;;;;;;;13.50;7.53;;;18.80;99.90;;;;;;5102477;28;20119;-74
2022/08/20 02:44:00;;;;;;;14.88;7.18;;;18.80;99.90;;;;;;5094560;28;20069;-74
2022/08/20 02:46:27;;;;;;;14.45;7.53;;;18.70;99.90;;;;;;5094435;28;20476;-74
2022/08/20 02:48:54;;;;;;;12.43;7.30;;;18.70;99.90;;;;;;5094068;28;20070;-74
2022/08/20 02:51:20;;;;;;;14.38;7.57;;;18.70;99.90;;;;;;5094350;28;20093;-74
2022/08/20 02:53:45;;;;;;;14.20;7.25;;;18.70;99.90;;;;;;5102843;28;20428;-74
2022/08/20 02:56:12;;;;;;;9.68;6.82;;;18.70;99.90;;;;;;5102932;28;20040;-74
2022/08/20 02:58:39;;;;;;;13.52;6.90;;;18.70;99.90;;;;;;5092918;28;20123;-74
2022/08/20 03:01:12;;;;;;;14.40;7.15;;;18.70;99.90;;;;;;5094220;28;20047;-74
2022/08/20 03:03:39;;;;;;;9.88;6.65;;;18.60;99.90;;;;;;5095431;28;20039;-74
2022/08/20 03:06:05;;;;;;;12.93;6.72;;;18.60;99.90;;;;;;5094103;28;20044;-74
2022/08/20 03:08:31;;;;;;;13.50;6.88;;;18.50;99.90;;;;;;5096931;28;20048;-74
2022/08/20 03:10:57;;;;;;;11.68;6.63;;;18.50;99.90;;;;;;5082821;28;20139;-74
2022/08/20 03:13:23;;;;;;;14.98;6.97;;;18.50;99.90;;;;;;5097011;28;20148;-74
2022/08/20 03:15:53;;;;;;;15.70;7.20;;;18.50;99.90;;;;;;5096273;28;20483;-74
2022/08/20 03:18:21;;;;;;;17.15;7.00;;;18.40;99.90;;;;;;5093718;28;20043;-74
2022/08/20 03:20:48;;;;;;;15.32;7.80;;;18.50;99.90;;;;;;5093771;28;20093;-74
2022/08/20 03:23:15;;;;;;;10.02;6.85;;;18.40;99.90;;;;;;5085013;28;20032;-74
2022/08/20 03:25:42;;;;;;;10.70;6.78;;;18.40;99.90;;;;;;5075774;28;20040;-74
2022/08/20 03:28:08;;;;;;;12.32;7.60;;;18.40;99.90;;;;;;5068548;28;20062;-74
2022/08/20 03:30:34;;;;;;;14.27;7.05;;;18.30;99.90;;;;;;5092979;28;20036;-74
2022/08/20 03:33:00;;;;;;;10.68;6.80;;;18.30;99.90;;;;;;5077287;28;20067;-74
2022/08/20 03:35:27;;;;;;;11.43;7.38;;;18.20;99.90;;;;;;5094639;28;20040;-74
2022/08/20 03:37:54;;;;;;;11.65;7.30;;;18.20;99.90;;;;;;5076091;28;20040;-74
2022/08/20 03:40:26;;;;;;;11.88;7.25;;;18.30;99.90;;;;;;5074236;28;20036;-74
2022/08/20 03:42:52;;;;;;;14.07;7.38;;;18.30;99.90;;;;;;5090012;28;20146;-74
2022/08/20 03:45:20;;;;;;;11.30;6.72;;;18.30;99.90;;;;;;5074405;28;20040;-74
2022/08/20 03:47:46;;;;;;;10.20;6.40;;;18.30;99.90;;;;;;5071875;28;20040;-74
2022/08/20 03:50:12;;;;;;;11.60;6.88;;;18.30;99.90;;;;;;5093435;28;20040;-74
2022/08/20 03:52:39;;;;;;;8.82;7.03;;;18.30;99.90;;;;;;5074296;28;20043;-74
2022/08/20 03:55:06;;;;;;;14.32;7.05;;;18.30;99.90;;;;;;5074241;28;20044;-74
2022/08/20 03:57:33;;;;;;;13.77;6.97;;;18.20;99.90;;;;;;5074110;28;20050;-74
2022/08/20 03:59:58;;;;;;;11.05;6.68;;;18.20;99.90;;;;;;5056365;28;20032;-74
2022/08/20 04:02:24;;;;;;;17.88;7.28;;;18.20;99.90;;;;;;5074053;28;20093;-74
2022/08/20 04:04:50;;;;;;;13.32;6.75;;;18.20;99.90;;;;;;5074490;28;20036;-74
2022/08/20 04:07:24;;;;;;;12.25;7.00;;;18.20;99.90;;;;;;5076262;28;20062;-74
2022/08/20 04:09:56;;;;;;;15.65;7.10;;;18.20;99.90;;;;;;5075852;28;20075;-74
2022/08/20 04:12:23;;;;;;;;;;;18.20;99.90;;;;;;5065214;28;20050;-74
2022/08/20 04:14:49;;;;;;;10.85;6.70;;;18.20;99.90;;;;;;5084763;28;19923;-74
2022/08/20 04:17:16;;;;;;;16.75;6.88;;;18.10;99.90;;;;;;5089422;28;20098;-74
2022/08/20 04:19:43;;;;;;;14.35;7.75;;;18.10;99.90;;;;;;5075872;28;20048;-74
2022/08/20 04:22:12;;;;;;;11.10;6.50;;;18.10;99.90;;;;;;5074275;28;20082;-74
2022/08/20 04:24:39;;;;;;;14.07;6.78;;;18.10;99.90;;;;;;5060595;28;20040;-74
2022/08/20 04:27:07;;;;;;;15.43;7.25;;;18.10;99.90;;;;;;5071526;28;20356;-74
2022/08/20 04:29:33;;;;;;;10.88;6.65;;;18.10;99.90;;;;;;5055473;28;20701;-74
2022/08/20 04:32:01;;;;;;;14.85;7.22;;;18.10;99.90;;;;;;5092272;28;20044;-74
2022/08/20 04:34:28;;;;;;;12.30;7.00;;;18.10;99.90;;;;;;5074810;28;20394;-74
2022/08/20 04:36:54;;;;;;;14.70;7.20;;;18.00;99.90;;;;;;5076054;28;20047;-74
2022/08/20 04:39:19;;;;;;;12.20;6.50;;;18.10;99.90;;;;;;5071643;28;20040;-73
2022/08/20 04:41:45;;;;;;;10.30;6.72;;;18.00;99.90;;;;;;5092681;28;20051;-74
2022/08/20 04:44:11;;;;;;;15.65;6.15;;;18.00;99.90;;;;;;5072254;28;20146;-74
2022/08/20 04:46:39;;;;;;;15.13;6.75;;;18.00;99.90;;;;;;5072037;28;20044;-74
2022/08/20 04:49:05;;;;;;;14.25;6.13;;;18.10;99.90;;;;;;5071691;28;20121;-73
2022/08/20 04:51:32;;;;;;;10.73;6.57;;;18.00;99.90;;;;;;5071836;28;20051;-74
2022/08/20 04:53:58;;;;;;;14.32;6.43;;;18.00;99.90;;;;;;5081752;28;20056;-74
2022/08/20 04:56:26;;;;;;;14.98;6.60;;;18.00;99.90;;;;;;5069445;28;20122;-74
2022/08/20 04:58:54;;;;;;;19.38;6.82;;;17.90;99.90;;;;;;5071606;28;20514;-74
2022/08/20 05:01:21;;;;;;;15.18;6.65;;;17.90;99.90;;;;;;5088520;28;20527;-74
2022/08/20 05:03:47;;;;;;;11.90;6.75;;;18.00;99.90;;;;;;5055219;28;20159;-74
2022/08/20 05:06:15;;;;;;;11.40;6.55;;;17.90;99.90;;;;;;5072866;28;20119;-74
2022/08/20 05:08:41;;;;;;;14.75;6.57;;;17.90;99.90;;;;;;5064820;28;20078;-74
2022/08/20 05:11:08;;;;;;;12.40;6.30;;;17.90;99.90;;;;;;5059221;28;20460;-74
2022/08/20 05:13:34;;;;;;;13.82;6.10;;;17.80;99.90;;;;;;5054900;28;20041;-74
2022/08/20 05:16:00;;;;;;;12.40;6.53;;;17.80;99.90;;;;;;5085495;28;20040;-74
2022/08/20 05:18:27;;;;;;;13.05;6.00;;;17.80;99.90;;;;;;5078781;28;20082;-74
2022/08/20 05:20:53;;;;;;;8.95;5.80;;;17.80;99.90;;;;;;5074346;28;20040;-74
2022/08/20 05:23:20;;;;;;;11.60;5.95;;;17.70;99.90;;;;;;5079353;28;20036;-74
2022/08/20 05:25:51;;;;;;;12.98;6.20;;;17.70;99.90;;;;;;5065656;28;20051;-74
2022/08/20 05:28:21;;;;;;;12.50;6.20;;;17.70;99.90;;;;;;5091733;28;20040;-74
2022/08/20 05:30:48;;;;;;;11.30;6.50;;;17.70;99.90;;;;;;5083711;28;20040;-74
2022/08/20 05:33:18;;;;;;;11.02;5.97;;;17.70;99.90;;;;;;5074679;28;20097;-74
2022/08/20 05:35:45;;;;;;;11.50;5.88;;;17.70;99.90;;;;;;5084604;28;20097;-74
2022/08/20 05:38:14;;;;;;;11.40;6.40;;;17.70;99.90;;;;;;5074575;28;20051;-74
2022/08/20 05:40:41;;;;;;;12.57;5.78;;;17.70;99.90;;;;;;5092610;28;20044;-74
2022/08/20 05:43:07;;;;;;;10.90;5.60;;;17.70;99.90;;;;;;5071476;28;20550;-74
2022/08/20 05:45:36;;;;;;;10.15;5.40;;;17.70;99.90;;;;;;5091264;28;20044;-74
2022/08/20 05:48:11;;;;;;;8.02;6.15;;;17.70;99.90;;;;;;5091327;28;20055;-74
2022/08/20 05:50:41;;;;;;;16.92;6.65;;;17.70;99.90;;;;;;5091911;28;20047;-74
2022/08/20 05:53:07;;;;;;;10.13;5.85;;;17.70;99.90;;;;;;5074204;28;20040;-74
2022/08/20 05:55:33;;;;;;;13.88;5.72;;;17.70;99.90;;;;;;5068610;28;20040;-73
2022/08/20 05:58:01;;;;;;;10.27;5.70;;;17.70;99.90;;;;;;5091007;28;20051;-74
2022/08/20 06:00:29;;;;;;;13.63;5.70;;;17.70;99.90;;;;;;5087446;28;20093;-74
2022/08/20 06:05:40;;;;;;;13.40;6.22;;;17.80;99.90;;;;;;5090963;28;20048;-74
2022/08/20 06:08:07;;;;;;;12.20;6.25;;;17.80;99.90;;;;;;5080600;28;20032;-73
2022/08/20 06:10:34;;;;;;;13.07;6.40;;;17.80;99.90;;;;;;5080531;28;20040;-74
2022/08/20 06:13:01;;;;;;;16.48;6.80;;;17.80;99.90;;;;;;5091866;28;20513;-74
2022/08/20 06:15:27;;;;;;;15.32;6.45;;;17.80;99.90;;;;;;5090729;28;20044;-74
2022/08/20 06:17:53;;;;;;;14.70;6.05;;;17.90;99.90;;;;;;5064140;28;20065;-74
2022/08/20 06:20:19;;;;;;;12.80;5.30;;;17.90;99.90;;;;;;5073607;28;20123;-74
2022/08/20 06:22:44;;;;;;;9.65;5.90;;;17.90;99.90;;;;;;5073875;28;20048;-74
2022/08/20 06:25:10;;;;;;;14.40;6.00;;;17.90;99.90;;;;;;5073527;28;20040;-74
2022/08/20 06:27:41;;;;;;;9.68;5.30;;;18.00;99.90;;;;;;5073905;28;20048;-74
2022/08/20 06:30:10;;;;;;;17.63;5.93;;;18.00;99.90;;;;;;5091230;28;20035;-74
2022/08/20 06:32:36;;;;;;;13.38;5.63;;;18.00;99.90;;;;;;5089619;28;20068;-74
2022/08/20 06:35:05;;;;;;;12.20;5.60;;;18.00;99.90;;;;;;5078526;28;20036;-74
2022/08/20 06:37:35;;;;;;;15.35;5.38;;;18.10;99.90;;;;;;5070709;28;20044;-74
2022/08/20 06:40:04;;;;;;;14.25;5.70;;;18.10;99.90;;;;;;5091338;28;20398;-74
2022/08/20 06:42:30;;;;;;;12.75;5.40;;;18.10;99.90;;;;;;5056418;28;20040;-74
2022/08/20 06:44:58;;;;;;;10.45;5.47;;;18.10;99.90;;;;;;5073777;28;20101;-74
2022/08/20 06:47:23;;;;;;;12.48;5.47;;;18.20;99.90;;;;;;5091295;28;20040;-74
2022/08/20 06:49:49;;;;;;;16.25;5.68;;;18.30;99.90;;;;;;5073235;28;20074;-74
2022/08/20 06:52:16;;;;;;;11.50;4.68;;;18.30;99.90;;;;;;5073304;28;20055;-74
2022/08/20 06:54:44;;;;;;;12.23;4.70;;;18.40;99.90;;;;;;5073637;28;20044;-74
2022/08/20 06:57:11;;;;;;;11.82;4.28;;;18.40;99.90;;;;;;5091357;28;20040;-74
2022/08/20 06:59:37;;;;;;;12.13;4.20;;;18.60;99.90;;;;;;5073054;28;20039;-74
2022/08/20 07:02:03;;;;;;;8.13;3.88;;;18.60;99.90;;;;;;5073527;28;20185;-74
2022/08/20 07:04:30;;;;;;;11.50;4.20;;;18.70;99.90;;;;;;5082213;28;20032;-74
2022/08/20 07:06:56;;;;;;;8.88;3.53;;;18.70;99.90;;;;;;5067260;28;20426;-74
2022/08/20 07:09:24;;;;;;;12.25;3.83;;;18.80;99.90;;;;;;5072913;28;20040;-74
2022/08/20 07:11:51;;;;;;;13.30;3.97;;;18.80;99.90;;;;;;5073422;28;20040;-74
2022/08/20 07:14:17;;;;;;;11.57;3.28;;;18.90;99.90;;;;;;5073437;28;20048;-74
2022/08/20 07:16:43;;;;;;;9.15;3.05;;;18.90;99.90;;;;;;5073153;28;20133;-74
2022/08/20 07:19:09;;;;;;;11.60;3.40;;;19.00;99.90;;;;;;5114526;28;20078;-74
2022/08/20 07:21:35;;;;;;;10.00;3.13;;;19.00;99.90;;;;;;5097229;28;20134;-74
2022/08/20 07:24:01;;;;;;;14.48;3.28;;;19.00;99.90;;;;;;5055397;28;20036;-74
2022/08/20 07:26:27;;;;;;;10.63;3.00;;;19.00;99.90;;;;;;5090269;28;20040;-74
2022/08/20 07:28:53;;;;;;;11.07;3.10;;;19.10;99.90;;;;;;5076098;28;20632;-74
2022/08/20 07:34:03;;;;;;;9.38;2.90;;;19.30;99.90;;;;;;5083118;28;20494;-74
2022/08/20 07:36:30;;;;;;;11.18;2.50;;;19.30;99.90;;;;;;5048515;28;20518;-74
2022/08/20 07:38:55;;;;;;;11.18;2.70;;;19.40;99.90;;;;;;5081241;28;20517;-74
2022/08/20 07:41:21;;;;;;;11.18;2.92;;;19.50;99.90;;;;;;5070289;28;20079;-74
2022/08/20 07:43:47;;;;;;;10.57;2.90;;;19.60;99.90;;;;;;5072641;28;20128;-74
2022/08/20 07:46:14;;;;;;;13.35;2.80;;;19.60;99.90;;;;;;5049712;28;20033;-74
2022/08/20 07:48:45;;;;;;;14.30;2.50;;;19.70;99.90;;;;;;5087469;28;20388;-74
2022/08/20 07:51:15;;;;;;;11.85;2.15;;;19.80;99.90;;;;;;5072098;28;20410;-74
2022/08/20 07:53:41;;;;;;;9.50;1.95;;;19.90;99.90;;;;;;5070109;28;20650;-73
2022/08/20 07:56:12;;;;;;;11.82;1.90;;;19.90;99.90;;;;;;5084514;28;20123;-73
2022/08/20 07:58:46;;;;;;;10.43;2.00;;;20.00;99.90;;;;;;5084340;28;20129;-74
2022/08/20 08:01:11;;;;;;;7.53;2.05;;;20.10;99.90;;;;;;5071828;28;20144;-74
2022/08/20 08:03:37;;;;;;;12.85;2.17;;;20.20;99.90;;;;;;5103159;28;20465;-73
2022/08/20 08:06:03;;;;;;;5.68;1.60;;;20.30;99.90;;;;;;5093701;28;20039;-73
2022/08/20 08:08:31;;;;;;;8.55;1.77;;;20.30;99.90;;;;;;5094727;28;20477;-73
2022/08/20 08:11:01;;;;;;;8.18;2.03;;;20.30;99.90;;;;;;5094501;28;20035;-75
2022/08/20 08:13:31;;;;;;;8.27;1.90;;;20.30;99.90;;;;;;5075750;28;20043;-75
2022/08/20 08:16:00;;;;;;;6.90;2.45;;;20.30;99.90;;;;;;5080168;28;20135;-74
2022/08/20 08:18:30;;;;;;;7.38;1.50;;;20.30;99.90;;;;;;5092466;28;20054;-73
2022/08/20 08:20:56;;;;;;;9.32;1.70;;;20.40;99.90;;;;;;5075844;28;20055;-73
2022/08/20 08:23:23;;;;;;;8.82;1.98;;;20.40;99.90;;;;;;5087179;28;20029;-73
2022/08/20 08:25:50;;;;;;;8.25;1.75;;;20.40;99.90;;;;;;5068049;28;20042;-73
2022/08/20 08:28:18;;;;;;;9.32;1.70;;;20.50;99.90;;;;;;5065958;28;20378;-73
2022/08/20 08:30:45;;;;;;;6.93;1.70;;;20.50;99.90;;;;;;5060216;28;20091;-73
2022/08/20 08:33:26;;;;;;;6.47;1.30;;;20.50;99.90;;;;;;5057619;28;20032;-74
2022/08/20 08:35:56;;;;;;;9.10;1.77;;;20.40;99.90;;;;;;5074045;28;20066;-75
2022/08/20 08:38:24;;;;;;;7.15;1.60;;;20.40;99.90;;;;;;5057048;28;20037;-75
2022/08/20 08:40:53;;;;;;;6.38;1.30;;;20.50;99.90;;;;;;5063103;28;20124;-75
2022/08/20 08:43:20;;;;;;;7.13;1.50;;;20.60;99.90;;;;;;5063843;28;20040;-75
2022/08/20 08:45:53;;;;;;;6.93;1.85;;;20.70;99.90;;;;;;5063872;28;20110;-75
2022/08/20 08:48:20;;;;;;;11.05;1.77;;;20.80;99.90;;;;;;5062398;28;20132;-75
2022/08/20 08:50:49;;;;;;;6.40;1.63;;;20.90;99.90;;;;;;5079842;28;20075;-74
2022/08/20 08:53:23;;;;;;;4.28;1.25;;;20.90;99.90;;;;;;5080847;28;20107;-75
2022/08/20 08:55:48;;;;;;;5.55;1.35;;;21.10;99.90;;;;;;5061081;28;20044;-75
2022/08/20 08:58:15;;;;;;;5.43;1.45;;;21.20;99.90;;;;;;5060560;28;20036;-74
2022/08/20 09:00:41;;;;;;;4.95;1.23;;;21.40;99.90;;;;;;5062092;28;20032;-75
2022/08/20 09:03:10;;;;;;;7.22;1.85;;;21.60;99.90;;;;;;5059945;28;20037;-75
2022/08/20 09:05:43;;;;;;;6.55;1.63;;;21.70;99.90;;;;;;5085472;28;20734;-74
2022/08/20 09:08:13;;;;;;;5.93;1.40;;;21.90;99.90;;;;;;5061944;28;20047;-75
2022/08/20 09:10:38;;;;;;;7.68;1.27;;;22.00;99.90;;;;;;5064194;28;20036;-74
2022/08/20 09:13:05;;;;;;;6.65;1.40;;;22.20;99.90;;;;;;5052271;28;20039;-74
2022/08/20 09:15:31;;;;;;;4.20;1.15;;;22.30;99.90;;;;;;5064125;28;20436;-75
2022/08/20 09:17:57;;;;;;;4.45;1.23;;;22.40;99.90;;;;;;5067417;28;20036;-75
2022/08/20 09:20:23;;;;;;;7.35;1.20;;;22.30;99.90;;;;;;5075910;28;20036;-75
2022/08/20 09:22:49;;;;;;;5.43;1.13;;;22.50;99.90;;;;;;5069938;28;20446;-75
2022/08/20 09:25:15;;;;;;;5.93;1.50;;;22.60;99.90;;;;;;5067791;28;20124;-75
2022/08/20 09:27:41;;;;;;;5.97;1.65;;;22.70;99.90;;;;;;5067401;28;20119;-75
2022/08/20 09:30:07;;;;;;;7.40;1.50;;;22.90;99.90;;;;;;5065079;28;20123;-74
2022/08/20 09:32:33;;;;;;;6.13;1.58;;;23.00;99.90;;;;;;5066269;28;20419;-74
2022/08/20 09:35:00;;;;;;;6.70;1.40;;;23.10;99.00;;;;;;5062495;28;20540;-75
2022/08/20 09:37:29;;;;;;;5.30;1.17;;;23.30;99.90;;;;;;5063897;28;20529;-74
2022/08/20 09:39:55;;;;;;;6.97;1.60;;;23.40;99.90;;;;;;5062604;28;20483;-74
2022/08/20 09:42:27;;;;;;;8.63;1.48;;;23.60;99.30;;;;;;5067529;28;20445;-75
2022/08/20 09:44:54;;;;;;;6.30;1.52;;;23.70;99.90;;;;;;5048944;28;20368;-74
2022/08/20 09:47:20;;;;;;;6.50;1.73;;;23.80;99.90;;;;;;5056984;28;20044;-74
2022/08/20 09:49:46;;;;;;;5.40;1.42;;;23.90;99.90;;;;;;5067107;28;20449;-74
2022/08/20 09:52:24;;;;;;;5.40;1.60;;;24.00;99.40;;;;;;5058586;28;20511;-74
2022/08/20 09:54:52;;;;;;;6.95;1.58;;;24.30;97.40;;;;;;5060302;28;20044;-74
2022/08/20 09:57:18;;;;;;;9.15;1.98;;;24.40;97.50;;;;;;5063313;28;20518;-74
2022/08/20 09:59:46;;;;;;;8.45;1.73;;;24.40;97.90;;;;;;5065317;28;20482;-74
2022/08/20 10:02:12;;;;;;;5.25;1.38;;;24.40;97.50;;;;;;5065399;28;20550;-75
2022/08/20 10:04:38;;;;;;;6.53;1.70;;;24.50;99.10;;;;;;5067388;28;20092;-74
2022/08/20 10:07:07;;;;;;;6.85;1.70;;;24.50;98.60;;;;;;5067828;28;20068;-74
2022/08/20 10:09:34;;;;;;;8.27;1.63;;;24.60;97.90;;;;;;5085416;28;20071;-74
2022/08/20 10:12:00;;;;;;;5.10;1.60;;;24.70;97.30;;;;;;5083473;28;20490;-74
2022/08/20 10:14:25;;;;;;;6.22;1.58;;;24.60;97.20;;;;;;5084277;28;20061;-73
2022/08/20 10:16:59;;;;;;;6.32;1.60;;;24.60;94.70;;;;;;5077275;28;20044;-73
2022/08/20 10:19:25;;;;;;;7.07;1.80;;;24.40;94.70;;;;;;5044630;28;20489;-73
2022/08/20 10:21:52;;;;;;;8.63;1.67;;;24.10;96.20;;;;;;5066528;28;20494;-74
2022/08/20 10:24:18;;;;;;;5.78;1.63;;;24.10;96.30;;;;;;5067576;28;20029;-73
2022/08/20 10:26:44;;;;;;;5.57;1.33;;;24.20;99.00;;;;;;5068823;28;20170;-74
2022/08/20 10:29:11;;;;;;;6.60;1.50;;;24.50;99.40;;;;;;5066687;28;20043;-74
2022/08/20 10:31:36;;;;;;;5.53;1.50;;;24.80;97.30;;;;;;5065090;28;20040;-74
2022/08/20 10:34:02;;;;;;;5.50;1.42;;;24.80;91.80;;;;;;5087104;28;20036;-74
2022/08/20 10:36:27;;;;;;;5.97;1.40;;;24.70;88.30;;;;;;5063940;28;20044;-73
2022/08/20 10:38:53;;;;;;;6.78;1.55;;;24.80;92.10;;;;;;5066439;28;20040;-73
2022/08/20 10:41:20;;;;;;;9.77;1.60;;;25.00;88.10;;;;;;5063704;28;20041;-73
2022/08/20 10:43:45;;;;;;;5.90;1.52;;;24.90;91.00;;;;;;5091379;28;20062;-73
2022/08/20 10:46:12;;;;;;;6.45;1.50;;;24.70;92.40;;;;;;5071666;28;20045;-73
2022/08/20 10:48:37;;;;;;;6.22;1.50;;;24.50;94.30;;;;;;5065824;28;20044;-73
2022/08/20 10:51:04;;;;;;;5.68;1.40;;;24.30;94.80;;;;;;5042704;28;20495;-73
2022/08/20 10:53:30;;;;;;;8.15;1.70;;;24.30;93.90;;;;;;5086238;28;20047;-73
2022/08/20 10:55:56;;;;;;;7.07;1.38;;;24.30;93.20;;;;;;5072625;28;20048;-72
2022/08/20 10:58:23;;;;;;;4.07;1.30;;;24.10;94.20;;;;;;5071932;28;20525;-72
2022/08/20 11:00:49;;;;;;;5.45;1.30;;;24.00;96.10;;;;;;5070229;28;20494;-72
2022/08/20 11:03:14;;;;;;;2.97;1.10;;;23.90;97.20;;;;;;5074242;28;20040;-72
2022/08/20 11:05:40;;;;;;;7.55;1.80;;;23.90;98.80;;;;;;5088767;28;20100;-72
2022/08/20 11:08:06;;;;;;;4.90;1.33;;;24.00;97.10;;;;;;5096853;28;20031;-72
2022/08/20 11:10:33;;;;;;;9.10;1.65;;;24.10;96.00;;;;;;5096642;28;20095;-72
2022/08/20 11:13:01;;;;;;;6.72;1.52;;;24.30;96.70;;;;;;5097033;28;20421;-72
2022/08/20 11:15:27;;;;;;;6.13;1.48;;;24.70;93.60;;;;;;5075125;28;20426;-72
2022/08/20 11:17:52;;;;;;;4.05;1.38;;;24.90;92.90;;;;;;5085320;28;20047;-72
2022/08/20 11:20:20;;;;;;;6.47;1.60;;;24.90;93.10;;;;;;5092564;28;20086;-72
2022/08/20 11:22:46;;;;;;;6.15;1.33;;;24.80;94.10;;;;;;5081323;28;20044;-72
2022/08/20 11:25:12;;;;;;;5.72;1.63;;;24.80;93.60;;;;;;5067508;28;20032;-72
2022/08/20 11:27:41;;;;;;;5.00;1.45;;;24.60;94.20;;;;;;5080941;28;20060;-72
2022/08/20 11:30:20;;;;;;;5.93;1.52;;;24.50;93.10;;;;;;5077637;28;20106;-72
2022/08/20 11:32:46;;;;;;;22.88;20.35;;;24.40;92.20;;;;;;5070704;28;20104;-72
2022/08/20 11:35:12;;;;;;;6.25;1.50;;;24.30;92.70;;;;;;5085128;28;20032;-74
2022/08/20 11:37:39;;;;;;;5.13;1.30;;;24.30;92.90;;;;;;5102449;28;20411;-73
2022/08/20 11:40:07;;;;;;;11.02;1.85;;;24.30;93.00;;;;;;5090864;28;20506;-73
2022/08/20 11:42:34;;;;;;;8.00;1.40;;;24.60;91.50;;;;;;5096027;28;20032;-73
2022/08/20 11:44:59;;;;;;;4.78;1.30;;;24.90;90.10;;;;;;5093031;28;20084;-73
2022/08/20 11:47:27;;;;;;;5.32;1.50;;;25.00;90.20;;;;;;5092710;28;20122;-73
2022/08/20 11:50:03;;;;;;;6.65;1.60;;;25.00;90.50;;;;;;5073217;28;20375;-73
2022/08/20 11:52:30;;;;;;;6.88;1.40;;;24.90;88.90;;;;;;5075497;28;20066;-73
2022/08/20 11:54:56;;;;;;;5.95;1.67;;;25.20;91.60;;;;;;5076432;28;20097;-73
2022/08/20 11:57:24;;;;;;;4.97;1.23;;;25.60;84.80;;;;;;5069865;28;20426;-73
2022/08/20 11:59:52;;;;;;;4.78;1.27;;;25.90;76.00;;;;;;5083318;28;20032;-72
2022/08/20 12:02:17;;;;;;;5.10;1.65;;;26.10;80.50;;;;;;5076493;28;20107;-73
2022/08/20 12:04:44;;;;;;;6.40;1.63;;;26.20;78.10;;;;;;5093216;28;20111;-73
2022/08/20 12:07:12;;;;;;;4.88;1.50;;;26.20;82.10;;;;;;5089750;28;20090;-73
2022/08/20 12:09:39;;;;;;;5.63;1.40;;;25.90;84.30;;;;;;5087182;28;20040;-73
2022/08/20 12:12:05;;;;;;;6.28;1.40;;;25.60;85.70;;;;;;5076303;28;20078;-73
2022/08/20 12:14:30;;;;;;;7.07;1.60;;;25.40;87.70;;;;;;5072454;28;20064;-73
2022/08/20 12:16:56;;;;;;;3.65;1.60;;;25.10;90.50;;;;;;5095910;28;20624;-73
2022/08/20 12:19:22;;;;;;;5.47;1.63;;;25.00;91.20;;;;;;5095623;28;20562;-73
2022/08/20 12:22:07;;;;;;;4.45;1.40;;;24.80;87.00;;;;;;5092889;28;20130;-73
2022/08/20 12:24:53;;;;;;;5.78;1.50;;;24.80;86.00;;;;;;5071393;28;20054;-73
2022/08/20 12:27:40;;;;;;;5.63;1.70;;;24.70;85.80;;;;;;5076765;28;20047;-72
2022/08/20 12:30:26;;;;;;;8.48;1.58;;;25.00;84.70;;;;;;5064606;28;20044;-74
2022/08/20 12:32:52;;;;;;;5.10;1.42;;;25.20;89.10;;;;;;5070628;28;20119;-73
2022/08/20 12:35:19;;;;;;;5.95;1.77;;;25.30;76.10;;;;;;5075820;28;20581;-73
2022/08/20 12:37:45;;;;;;;5.75;1.50;;;25.50;76.70;;;;;;5075422;28;20044;-73
2022/08/20 12:40:15;;;;;;;6.25;1.67;;;25.40;79.70;;;;;;5075036;28;20072;-73
2022/08/20 12:42:41;;;;;;;4.88;1.60;;;25.70;83.80;;;;;;5075531;28;20040;-73
2022/08/20 12:45:07;;;;;;;5.07;1.40;;;26.30;78.30;;;;;;5075633;28;20058;-73
2022/08/20 12:47:36;;;;;;;6.07;1.60;;;26.60;77.30;;;;;;5070466;28;20123;-73
2022/08/20 12:50:09;;;;;;;10.00;1.80;;;26.90;76.40;;;;;;5075205;28;20123;-73